UAE538 OMDB-LIRF
Flight info
| Callsign | UAE538 |
|---|---|
| Flight time | N/A |
| Altitude | 37000 |
| Route | ANVIX L223 TARDI N629 BOTAM Y855 LAKLU/N0492F360 Q204 NALKI G652 TOKRA DCT ALROK/N0486F380 DCT BOSOB DCT ITRUX Y511 PMA Z712 WEJ L677 EMOVA/N0482F400 L677 CVO L617 TANSA DCT TRL DCT OSDES UN1 LATAN DCT VEGAN/N0479F410 DCT SOR/N0476F380 DCT TEA DCT SIPRO/N0392F180 Z803 LAT |
| Aircraft | B772/H-SDE2E3FGHIJ5LORVWXY/LB1D1 |
Departure
| Time | N/A |
|---|---|
| Airport | Dubai International Airport (OMDB) |
Arrival
| Time | 2026-05-06 22:04 |
|---|---|
| Airport | Rome–Fiumicino Leonardo da Vinci International Airport (LIRF) |
| Time | Latitude | Longitude | Altitude | Speed | Heading |
|---|---|---|---|---|---|
| 2026-05-06 21:38 | 40.96057 | 14.23402 | 4758 ft | 264 kts | 319° |
| 2026-05-06 21:39 | 40.97586 | 14.22035 | 5487 ft | 270 kts | 325° |
| 2026-05-06 21:39 | 40.99209 | 14.20761 | 6239 ft | 273 kts | 326° |
| 2026-05-06 21:39 | 41.00832 | 14.19510 | 6996 ft | 274 kts | 325° |
| 2026-05-06 21:39 | 41.02474 | 14.18242 | 7788 ft | 274 kts | 324° |
| 2026-05-06 21:40 | 41.04111 | 14.16975 | 8554 ft | 275 kts | 324° |
| 2026-05-06 21:40 | 41.05769 | 14.15689 | 9276 ft | 277 kts | 323° |
| 2026-05-06 21:40 | 41.07417 | 14.14410 | 9988 ft | 278 kts | 323° |
| 2026-05-06 21:40 | 41.09104 | 14.13099 | 10627 ft | 283 kts | 322° |
| 2026-05-06 21:41 | 41.10845 | 14.11742 | 10997 ft | 298 kts | 323° |
| 2026-05-06 21:41 | 41.12675 | 14.10315 | 11303 ft | 315 kts | 323° |
| 2026-05-06 21:41 | 41.14607 | 14.08810 | 11527 ft | 335 kts | 324° |
| 2026-05-06 21:41 | 41.16687 | 14.07190 | 11783 ft | 353 kts | 324° |
| 2026-05-06 21:42 | 41.18843 | 14.05513 | 12242 ft | 363 kts | 324° |
| 2026-05-06 21:42 | 41.21037 | 14.03806 | 12807 ft | 371 kts | 324° |
| 2026-05-06 21:42 | 41.23255 | 14.02079 | 13461 ft | 375 kts | 325° |
| 2026-05-06 21:42 | 41.25514 | 14.00309 | 14082 ft | 378 kts | 324° |
| 2026-05-06 21:43 | 41.27600 | 13.98193 | 14744 ft | 376 kts | 312° |
| 2026-05-06 21:43 | 41.29281 | 13.95633 | 15486 ft | 371 kts | 301° |
| 2026-05-06 21:43 | 41.30560 | 13.92629 | 15960 ft | 370 kts | 290° |
| 2026-05-06 21:43 | 41.31430 | 13.89465 | 16018 ft | 368 kts | 285° |
| 2026-05-06 21:44 | 41.32214 | 13.86255 | 16010 ft | 362 kts | 284° |
| 2026-05-06 21:44 | 41.32993 | 13.83008 | 16031 ft | 374 kts | 284° |
| 2026-05-06 21:44 | 41.33781 | 13.79681 | 16030 ft | 387 kts | 284° |
| 2026-05-06 21:44 | 41.34589 | 13.76270 | 16012 ft | 388 kts | 284° |
| 2026-05-06 21:45 | 41.35467 | 13.72842 | 16033 ft | 389 kts | 290° |
| 2026-05-06 21:45 | 41.36729 | 13.69645 | 16008 ft | 394 kts | 300° |
| 2026-05-06 21:45 | 41.38414 | 13.66760 | 16025 ft | 400 kts | 309° |
| 2026-05-06 21:45 | 41.40359 | 13.64105 | 16029 ft | 400 kts | 311° |
| 2026-05-06 21:46 | 41.42306 | 13.61495 | 16029 ft | 400 kts | 312° |
| 2026-05-06 21:46 | 41.44277 | 13.58852 | 16027 ft | 400 kts | 311° |
| 2026-05-06 21:46 | 41.46246 | 13.56211 | 16020 ft | 400 kts | 311° |
| 2026-05-06 21:46 | 41.48198 | 13.53589 | 16027 ft | 401 kts | 312° |
| 2026-05-06 21:47 | 41.50164 | 13.50946 | 16029 ft | 401 kts | 312° |
| 2026-05-06 21:47 | 41.52119 | 13.48315 | 16037 ft | 402 kts | 312° |
| 2026-05-06 21:47 | 41.54081 | 13.45672 | 16038 ft | 402 kts | 312° |
| 2026-05-06 21:47 | 41.56047 | 13.43022 | 16038 ft | 402 kts | 312° |
| 2026-05-06 21:48 | 41.58016 | 13.40365 | 16045 ft | 401 kts | 312° |
| 2026-05-06 21:48 | 41.59960 | 13.37739 | 16027 ft | 401 kts | 312° |
| 2026-05-06 21:48 | 41.61917 | 13.35060 | 16025 ft | 401 kts | 309° |
| 2026-05-06 21:48 | 41.63581 | 13.32113 | 16034 ft | 400 kts | 300° |
| 2026-05-06 21:49 | 41.65045 | 13.28995 | 16030 ft | 389 kts | 299° |
| 2026-05-06 21:49 | 41.66443 | 13.25984 | 16035 ft | 375 kts | 299° |
| 2026-05-06 21:49 | 41.67809 | 13.23034 | 16027 ft | 372 kts | 299° |
| 2026-05-06 21:49 | 41.69172 | 13.20087 | 16031 ft | 371 kts | 299° |
| 2026-05-06 21:50 | 41.70526 | 13.17158 | 16041 ft | 371 kts | 299° |
| 2026-05-06 21:50 | 41.71868 | 13.14249 | 16035 ft | 371 kts | 299° |
| 2026-05-06 21:50 | 41.73208 | 13.11343 | 15982 ft | 365 kts | 299° |
| 2026-05-06 21:50 | 41.74538 | 13.08457 | 15576 ft | 363 kts | 299° |
| 2026-05-06 21:51 | 41.75861 | 13.05582 | 15054 ft | 363 kts | 299° |
| 2026-05-06 21:51 | 41.77177 | 13.02719 | 14628 ft | 360 kts | 299° |
| 2026-05-06 21:51 | 41.78470 | 12.99905 | 14198 ft | 357 kts | 299° |
| 2026-05-06 21:51 | 41.79775 | 12.97061 | 13744 ft | 356 kts | 299° |
| 2026-05-06 21:52 | 41.81055 | 12.94270 | 13247 ft | 356 kts | 300° |
| 2026-05-06 21:52 | 41.82355 | 12.91429 | 12697 ft | 357 kts | 300° |
| 2026-05-06 21:52 | 41.83633 | 12.88637 | 12264 ft | 354 kts | 300° |
| 2026-05-06 21:52 | 41.84921 | 12.85820 | 11726 ft | 355 kts | 299° |
| 2026-05-06 21:53 | 41.86212 | 12.82992 | 11206 ft | 355 kts | 299° |
| 2026-05-06 21:53 | 41.87482 | 12.80210 | 10731 ft | 353 kts | 299° |
| 2026-05-06 21:53 | 41.88743 | 12.77445 | 10544 ft | 334 kts | 300° |
| 2026-05-06 21:53 | 41.89914 | 12.74882 | 10469 ft | 312 kts | 300° |
| 2026-05-06 21:54 | 41.91013 | 12.72471 | 10349 ft | 293 kts | 299° |
| 2026-05-06 21:54 | 41.92048 | 12.70199 | 10278 ft | 281 kts | 299° |
| 2026-05-06 21:54 | 41.93043 | 12.68010 | 10168 ft | 273 kts | 299° |
| 2026-05-06 21:54 | 41.94022 | 12.65855 | 10065 ft | 276 kts | 299° |
| 2026-05-06 21:55 | 41.95038 | 12.63610 | 9938 ft | 282 kts | 299° |
| 2026-05-06 21:55 | 41.96053 | 12.61369 | 9548 ft | 284 kts | 300° |
| 2026-05-06 21:55 | 41.97015 | 12.59076 | 9209 ft | 282 kts | 290° |
| 2026-05-06 21:55 | 41.97652 | 12.56602 | 8972 ft | 277 kts | 285° |
| 2026-05-06 21:56 | 41.98231 | 12.54132 | 8689 ft | 276 kts | 285° |
| 2026-05-06 21:56 | 41.98803 | 12.51679 | 8402 ft | 275 kts | 285° |
| 2026-05-06 21:56 | 41.99374 | 12.49230 | 8142 ft | 272 kts | 285° |
| 2026-05-06 21:56 | 41.99935 | 12.46818 | 7853 ft | 271 kts | 285° |
| 2026-05-06 21:57 | 42.00483 | 12.44465 | 7814 ft | 257 kts | 285° |
| 2026-05-06 21:57 | 42.00995 | 12.42265 | 7798 ft | 240 kts | 285° |
| 2026-05-06 21:57 | 42.01476 | 12.40201 | 7715 ft | 225 kts | 284° |
| 2026-05-06 21:57 | 42.01833 | 12.38193 | 7389 ft | 219 kts | 268° |
| 2026-05-06 21:58 | 42.01516 | 12.36303 | 7279 ft | 199 kts | 246° |
| 2026-05-06 21:58 | 42.00997 | 12.34612 | 7129 ft | 191 kts | 244° |
| 2026-05-06 21:58 | 42.00502 | 12.33029 | 6621 ft | 187 kts | 244° |
| 2026-05-06 21:58 | 41.99988 | 12.31395 | 6071 ft | 187 kts | 244° |
| 2026-05-06 21:59 | 41.99491 | 12.29813 | 5459 ft | 186 kts | 244° |
| 2026-05-06 21:59 | 41.98992 | 12.28233 | 4800 ft | 187 kts | 244° |
| 2026-05-06 21:59 | 41.98492 | 12.26642 | 4277 ft | 180 kts | 244° |
| 2026-05-06 21:59 | 41.98024 | 12.25157 | 3865 ft | 169 kts | 244° |
| 2026-05-06 22:00 | 41.97573 | 12.23726 | 3238 ft | 168 kts | 244° |
| 2026-05-06 22:00 | 41.97006 | 12.22403 | 2679 ft | 162 kts | 220° |
| 2026-05-06 22:00 | 41.96012 | 12.21702 | 2451 ft | 164 kts | 195° |
| 2026-05-06 22:00 | 41.94916 | 12.21761 | 2225 ft | 160 kts | 163° |
| 2026-05-06 22:01 | 41.93886 | 12.22265 | 2003 ft | 158 kts | 161° |
| 2026-05-06 22:01 | 41.92831 | 12.22715 | 1780 ft | 157 kts | 162° |
| 2026-05-06 22:01 | 41.91801 | 12.23140 | 1562 ft | 156 kts | 162° |
| 2026-05-06 22:01 | 41.90757 | 12.23579 | 1347 ft | 156 kts | 161° |
| 2026-05-06 22:02 | 41.89732 | 12.24008 | 1127 ft | 156 kts | 161° |
| 2026-05-06 22:02 | 41.88688 | 12.24444 | 911 ft | 156 kts | 161° |
| 2026-05-06 22:02 | 41.87656 | 12.24851 | 698 ft | 156 kts | 163° |
| 2026-05-06 22:02 | 41.86655 | 12.25242 | 417 ft | 142 kts | 159° |
| 2026-05-06 22:03 | 41.85782 | 12.25647 | 247 ft | 129 kts | 160° |
| 2026-05-06 22:03 | 41.84942 | 12.26004 | 126 ft | 126 kts | 160° |
| 2026-05-06 22:03 | 41.84101 | 12.26358 | 40 ft | 126 kts | 161° |
| 2026-05-06 22:03 | 41.83297 | 12.26697 | 16 ft | 111 kts | 162° |
| 2026-05-06 22:04 | 41.82676 | 12.26959 | 16 ft | 75 kts | 162° |
| 2026-05-06 22:04 | 41.82287 | 12.27115 | 13 ft | 43 kts | 164° |
| 2026-05-06 22:04 | 41.82008 | 12.27143 | 16 ft | 37 kts | 195° |
| 2026-05-06 22:04 | 41.81761 | 12.27052 | 16 ft | 35 kts | 185° |
| 2026-05-06 22:05 | 41.81522 | 12.27117 | 16 ft | 34 kts | 162° |
| 2026-05-06 22:05 | 41.81296 | 12.27220 | 16 ft | 34 kts | 164° |
| 2026-05-06 22:05 | 41.81072 | 12.27305 | 16 ft | 33 kts | 163° |
| 2026-05-06 22:05 | 41.80850 | 12.27341 | 16 ft | 32 kts | 186° |
| 2026-05-06 22:06 | 41.80657 | 12.27225 | 16 ft | 30 kts | 244° |
| 2026-05-06 22:06 | 41.80580 | 12.26959 | 16 ft | 30 kts | 249° |
| 2026-05-06 22:06 | 41.80507 | 12.26694 | 16 ft | 30 kts | 249° |
| 2026-05-06 22:06 | 41.80435 | 12.26433 | 19 ft | 29 kts | 250° |
| 2026-05-06 22:07 | 41.80365 | 12.26177 | 22 ft | 28 kts | 251° |
| 2026-05-06 22:07 | 41.80301 | 12.25942 | 21 ft | 27 kts | 249° |
| 2026-05-06 22:07 | 41.80236 | 12.25703 | 21 ft | 27 kts | 247° |
| 2026-05-06 22:07 | 41.80167 | 12.25458 | 19 ft | 28 kts | 249° |
| 2026-05-06 22:08 | 41.80098 | 12.25207 | 17 ft | 29 kts | 257° |
| 2026-05-06 22:08 | 41.80106 | 12.25004 | 16 ft | 17 kts | 275° |
| 2026-05-06 22:08 | 41.80094 | 12.24835 | 15 ft | 18 kts | 254° |
| 2026-05-06 22:08 | 41.80051 | 12.24667 | 15 ft | 19 kts | 250° |
| 2026-05-06 22:09 | 41.80004 | 12.24496 | 15 ft | 20 kts | 250° |
| 2026-05-06 22:09 | 41.79971 | 12.24404 | 15 ft | 8 kts | 229° |
| 2026-05-06 22:09 | 41.79915 | 12.24393 | 15 ft | 9 kts | 166° |
| 2026-05-06 22:09 | 41.79847 | 12.24423 | 15 ft | 10 kts | 161° |
| 2026-05-06 22:10 | 41.79774 | 12.24457 | 17 ft | 11 kts | 161° |
| 2026-05-06 22:10 | 41.79750 | 12.24518 | 17 ft | 8 kts | 88° |
| 2026-05-06 22:10 | 41.79750 | 12.24566 | 17 ft | 5 kts | 94° |
| 2026-05-06 22:10 | 41.79749 | 12.24575 | 17 ft | 0 kts | 94° |